Rock Springs Sweetwater County Airport
KRKS : now visible

Airfield :











YOU CAN JOIN US ON...

 
LOGIN :

Register | Disclaimer

   EN    FR    IT 

 









Legend :    VFR   Marginal VFR   IFR   Intensive IFR   Very Intensive IFR
Visi :
Ceiling :
>= 8 km
>= 3000ft
5 to 8 km
1000 to 3000 ft
1500m to 5 km
500 to 1000 ft
800 to 1500m
200 to 500 ft
< 800m
< 200 ft
Symbols :   Thunderstorms  Fog  Heavy snow  Heavy precipitations  Wind > 20 kt






- Airport Elevation : 6764 ft
- IATA code : RKS


KRKS - Rock Springs Sweetwater County

CURRENT METAR :
  • 291154Z AUTO 21007KT 10SM FEW120 19/04 A3024 RMK AO2 SLP138 T01940039 10211 20183 58004

EXPIRED METARs :
  • 291054Z AUTO VRB06G17KT 10SM OVC110 21/03 A3025 RMK AO2 SLP139 T02110028
  • 290954Z AUTO 23005KT 10SM FEW110 19/04 A3025 RMK AO2 PK WND 19030/0855 SLP145 T01890039

TAF KRKS
Valid from the 29 at 12:00 until the 30 at 12:00 UTC


291126Z 2912/3012 25006KT P6SM VCSH BKN110
FM291800 25018G28KT P6SM VCSH BKN100
FM292100 25020G30KT P6SM VCTS SCT100CB BKN140
FM300200 25014KT P6SM BKN120
FM300400 21008KT P6SM BKN130
KZLC FIR / North America



MET'MAP, your aeronautical weather chart ! - Copyright ORBIFLY December 2007 - Disclaimer

ORBIFLY MET'MAP TEAM :

Programming & Development : Alexandra Zaïnal
Original concept : Baudouin d'Aumeries
Technical & hardware support : Manuel Goepfert
Assistance : Marc-Olivier Méhu




SOURCES & CREDITS :

   NOAA       Earth
Advisory